createdAt,value
2022-10-05T00:00:30.895Z,97733.75
2022-10-05T00:02:59.360Z,97736.69
2022-10-05T00:05:31.120Z,97724.88
2022-10-05T00:08:05.968Z,97723.25
2022-10-05T00:10:35.323Z,97717.38
2022-10-05T00:13:03.681Z,97707.97
2022-10-05T00:15:31.656Z,97706.94
2022-10-05T00:17:59.700Z,97701.56
2022-10-05T00:20:27.957Z,97693.81
2022-10-05T00:22:58.637Z,97694.88
2022-10-05T00:25:26.677Z,97690.31
2022-10-05T00:27:58.908Z,97683.66
2022-10-05T00:30:28.387Z,97686.88
2022-10-05T00:32:59.674Z,97679.94
2022-10-05T00:35:29.565Z,97685.50
2022-10-05T00:37:57.621Z,97679.84
2022-10-05T00:40:34.481Z,97683.06
2022-10-05T00:43:24.363Z,97684.13
2022-10-05T00:45:56.842Z,97679.59
2022-10-05T00:48:32.612Z,97675.03
2022-10-05T00:51:12.498Z,97679.28
2022-10-05T00:53:44.953Z,97680.38
2022-10-05T00:56:22.440Z,97676.88
2022-10-05T00:58:57.172Z,97675.00
2022-10-05T01:01:28.835Z,97673.38
2022-10-05T01:04:03.609Z,97668.53
2022-10-05T01:06:37.508Z,97670.41
2022-10-05T01:09:10.466Z,97663.16
2022-10-05T01:11:44.309Z,97655.66
2022-10-05T01:14:18.175Z,97654.06
2022-10-05T01:16:52.606Z,97652.44
2022-10-05T01:19:34.767Z,97651.91
2022-10-05T01:22:07.873Z,97649.78
2022-10-05T01:24:45.282Z,97644.66
2022-10-05T01:27:20.504Z,97648.94
2022-10-05T01:29:54.701Z,97644.41
2022-10-05T01:32:26.983Z,97644.41
2022-10-05T01:35:00.037Z,97634.75
2022-10-05T01:37:30.499Z,97641.16
2022-10-05T01:40:02.721Z,97652.88
2022-10-05T01:42:39.017Z,97654.44
2022-10-05T01:45:12.901Z,97648.28
2022-10-05T01:47:45.530Z,97648.56
2022-10-05T01:50:18.995Z,97644.81
2022-10-05T01:52:53.963Z,97643.97
2022-10-05T01:55:28.018Z,97643.97
2022-10-05T01:58:07.087Z,97646.91
2022-10-05T02:00:42.286Z,97639.38
2022-10-05T02:03:15.097Z,97639.34
2022-10-05T02:05:49.658Z,97638.31
2022-10-05T02:08:24.892Z,97638.88
2022-10-05T02:10:59.100Z,97642.03
2022-10-05T02:13:33.660Z,97632.41
2022-10-05T02:16:05.681Z,97633.72
2022-10-05T02:18:39.108Z,97631.28
2022-10-05T02:21:07.389Z,97631.34
2022-10-05T02:23:38.036Z,97633.72
2022-10-05T02:26:08.013Z,97630.81
2022-10-05T02:28:39.616Z,97626.53
2022-10-05T02:31:12.570Z,97629.22
2022-10-05T02:33:40.860Z,97620.13
2022-10-05T02:36:17.205Z,97625.47
2022-10-05T02:39:02.189Z,97622.50
2022-10-05T02:41:39.718Z,97624.94
2022-10-05T02:44:15.287Z,97616.63
2022-10-05T02:46:50.976Z,97608.91
2022-10-05T02:49:28.429Z,97599.50
2022-10-05T02:52:03.364Z,97612.56
2022-10-05T02:54:43.808Z,97620.13
2022-10-05T02:57:17.704Z,97621.94
2022-10-05T02:59:49.220Z,97618.25
2022-10-05T03:02:23.272Z,97619.06
2022-10-05T03:05:00.701Z,97625.97
2022-10-05T03:07:33.402Z,97631.81
2022-10-05T03:10:09.590Z,97622.97
2022-10-05T03:12:53.429Z,97618.44
2022-10-05T03:15:44.346Z,97617.63
2022-10-05T03:18:20.674Z,97617.31
2022-10-05T03:20:55.085Z,97616.78
2022-10-05T03:23:30.846Z,97617.84
2022-10-05T03:26:10.828Z,97623.16
2022-10-05T03:28:47.692Z,97627.94
2022-10-05T03:31:19.205Z,97625.22
2022-10-05T03:33:52.683Z,97624.91
2022-10-05T03:36:26.634Z,97623.81
2022-10-05T03:39:01.839Z,97619.78
2022-10-05T03:41:36.187Z,97612.78
2022-10-05T03:44:35.363Z,97619.69
2022-10-05T03:47:12.673Z,97609.03
2022-10-05T03:49:54.090Z,97618.63
2022-10-05T03:52:26.434Z,97613.88
2022-10-05T03:54:58.644Z,97619.69
2022-10-05T03:57:28.608Z,97607.97
2022-10-05T04:00:02.232Z,97612.25
2022-10-05T04:02:46.038Z,97606.91
2022-10-05T04:05:18.771Z,97614.34
2022-10-05T04:07:49.926Z,97613.88
2022-10-05T04:10:22.622Z,97614.91
2022-10-05T04:12:55.191Z,97612.75
2022-10-05T04:15:29.802Z,97606.59
2022-10-05T04:18:02.055Z,97607.16
2022-10-05T04:20:35.628Z,97605.28
2022-10-05T04:23:12.711Z,97601.06
2022-10-05T04:25:45.616Z,97598.94
2022-10-05T04:28:20.387Z,97597.84
2022-10-05T04:30:50.739Z,97604.50
2022-10-05T04:33:19.413Z,97600.25
2022-10-05T04:35:58.761Z,97598.34
2022-10-05T04:38:36.107Z,97602.88
2022-10-05T04:41:17.569Z,97603.41
2022-10-05T04:43:54.687Z,97610.03
2022-10-05T04:46:31.253Z,97615.38
2022-10-05T04:49:14.720Z,97611.03
2022-10-05T04:51:52.126Z,97619.59
2022-10-05T04:54:27.805Z,97624.44
2022-10-05T04:56:58.745Z,97621.22
2022-10-05T04:59:40.828Z,97624.69
2022-10-05T05:02:16.740Z,97622.53
2022-10-05T05:05:23.341Z,97627.00
2022-10-05T05:08:02.820Z,97632.34
2022-10-05T05:10:59.668Z,97624.53
2022-10-05T05:13:43.714Z,97634.91
2022-10-05T05:16:21.016Z,97634.31
2022-10-05T05:19:01.036Z,97636.72
2022-10-05T05:21:38.120Z,97634.31
2022-10-05T05:24:16.460Z,97638.53
2022-10-05T05:26:58.899Z,97636.31
2022-10-05T05:29:35.471Z,97632.78
2022-10-05T05:32:10.789Z,97631.50
2022-10-05T05:34:46.736Z,97633.03
2022-10-05T05:37:19.542Z,97626.63
2022-10-05T05:39:56.062Z,97629.34
2022-10-05T05:42:36.866Z,97629.69
2022-10-05T05:45:09.905Z,97626.50
2022-10-05T05:47:41.841Z,97629.16
2022-10-05T05:50:23.373Z,97623.53
2022-10-05T05:52:55.264Z,97622.78
2022-10-05T05:55:30.215Z,97630.59
2022-10-05T05:58:04.765Z,97631.41
2022-10-05T06:00:37.040Z,97630.59
2022-10-05T06:03:11.975Z,97634.91
2022-10-05T06:05:43.505Z,97635.91
2022-10-05T06:08:17.920Z,97646.06
2022-10-05T06:10:53.190Z,97638.34
2022-10-05T06:13:24.806Z,97641.31
2022-10-05T06:15:55.847Z,97643.06
2022-10-05T06:18:24.789Z,97647.59
2022-10-05T06:20:59.222Z,97647.06
2022-10-05T06:23:31.837Z,97650.34
2022-10-05T06:26:13.020Z,97645.06
2022-10-05T06:28:43.552Z,97638.94
2022-10-05T06:31:23.981Z,97641.34
2022-10-05T06:34:02.888Z,97643.59
2022-10-05T06:36:41.258Z,97637.19
2022-10-05T06:39:23.893Z,97634.81
2022-10-05T06:42:06.119Z,97640.16
2022-10-05T06:44:57.733Z,97628.19
2022-10-05T06:47:39.375Z,97631.69
2022-10-05T06:50:32.295Z,97630.16
2022-10-05T06:53:21.512Z,97633.69
2022-10-05T06:55:55.202Z,97631.06
2022-10-05T06:58:45.021Z,97636.19
2022-10-05T07:01:17.386Z,97647.19
2022-10-05T07:03:56.642Z,97646.38
2022-10-05T07:06:26.960Z,97652.56
2022-10-05T07:09:07.370Z,97659.84
2022-10-05T07:11:54.662Z,97651.56
2022-10-05T07:14:37.182Z,97661.16
2022-10-05T07:17:18.724Z,97672.94
2022-10-05T07:19:54.829Z,97671.97
2022-10-05T07:22:49.761Z,97677.38
2022-10-05T07:25:21.793Z,97677.97
2022-10-05T07:27:55.055Z,97672.69
2022-10-05T07:30:24.792Z,97677.00
2022-10-05T07:32:59.980Z,97687.75
2022-10-05T07:35:53.993Z,97681.06
2022-10-05T07:38:32.075Z,97687.28
2022-10-05T07:41:06.323Z,97687.88
2022-10-05T07:44:01.003Z,97689.00
2022-10-05T07:46:37.612Z,97691.72
2022-10-05T07:49:12.273Z,97692.81
2022-10-05T07:51:42.090Z,97690.19
2022-10-05T07:54:17.273Z,97694.50
2022-10-05T07:56:48.827Z,97699.34
2022-10-05T07:59:24.953Z,97696.72
2022-10-05T08:01:57.971Z,97697.84
2022-10-05T08:04:29.034Z,97685.00
2022-10-05T08:06:59.406Z,97687.97
2022-10-05T08:09:34.490Z,97693.63
2022-10-05T08:12:09.420Z,97677.56
2022-10-05T08:14:42.113Z,97684.56
2022-10-05T08:17:25.397Z,97689.09
2022-10-05T08:19:59.680Z,97690.19
2022-10-05T08:22:30.975Z,97693.41
2022-10-05T08:25:01.404Z,97692.84
2022-10-05T08:27:34.336Z,97698.72
2022-10-05T08:30:04.781Z,97690.38
2022-10-05T08:32:58.316Z,97688.19
2022-10-05T08:35:34.037Z,97692.22
2022-10-05T08:38:03.871Z,97686.81
2022-10-05T08:40:55.171Z,97695.59
2022-10-05T08:43:35.453Z,97691.53
2022-10-05T08:46:17.752Z,97688.50
2022-10-05T08:49:11.126Z,97684.16
2022-10-05T08:51:50.868Z,97693.47
2022-10-05T08:54:32.475Z,97689.34
2022-10-05T08:57:18.149Z,97696.28
2022-10-05T09:00:03.744Z,97692.97
2022-10-05T09:02:41.836Z,97693.41
2022-10-05T09:05:19.909Z,97695.50
2022-10-05T09:08:20.824Z,97688.34
2022-10-05T09:11:12.943Z,97692.50
2022-10-05T09:14:06.339Z,97697.28
2022-10-05T09:16:58.171Z,97693.47
2022-10-05T09:19:51.787Z,97690.13
2022-10-05T09:22:37.508Z,97684.94
2022-10-05T09:25:17.248Z,97687.72
2022-10-05T09:27:52.377Z,97688.03
2022-10-05T09:30:30.461Z,97681.41
2022-10-05T09:33:29.901Z,97675.72
2022-10-05T09:36:36.361Z,97674.00
2022-10-05T09:39:39.227Z,97672.03
2022-10-05T09:42:38.092Z,97670.06
2022-10-05T09:45:39.412Z,97668.88
2022-10-05T09:48:48.761Z,97670.03
2022-10-05T09:51:52.563Z,97677.81
2022-10-05T09:54:49.397Z,97679.91
2022-10-05T09:57:40.325Z,97674.56
2022-10-05T10:00:21.832Z,97676.84
2022-10-05T10:03:19.656Z,97669.44
2022-10-05T10:06:32.038Z,97671.59
2022-10-05T10:09:18.047Z,97671.09
2022-10-05T10:12:01.224Z,97664.09
2022-10-05T10:15:02.988Z,97660.69
2022-10-05T10:18:04.644Z,97660.84
2022-10-05T10:20:42.734Z,97657.25
2022-10-05T10:23:18.282Z,97653.84
2022-10-05T10:26:11.339Z,97657.13
2022-10-05T10:29:10.047Z,97653.03
2022-10-05T10:31:48.989Z,97641.69
2022-10-05T10:34:45.908Z,97652.47
2022-10-05T10:37:40.747Z,97644.91
2022-10-05T10:40:26.049Z,97642.75
2022-10-05T10:43:11.257Z,97641.22
2022-10-05T10:45:48.846Z,97650.53
2022-10-05T10:48:51.292Z,97645.16
2022-10-05T10:51:26.822Z,97648.72
2022-10-05T10:54:20.626Z,97642.53
2022-10-05T10:57:00.494Z,97645.81
2022-10-05T11:00:01.774Z,97641.41
2022-10-05T11:02:57.655Z,97638.59
2022-10-05T11:05:48.853Z,97636.41
2022-10-05T11:08:56.422Z,97635.50
2022-10-05T11:12:01.560Z,97633.91
2022-10-05T11:14:42.395Z,97636.66
2022-10-05T11:17:26.209Z,97634.94
2022-10-05T11:20:05.413Z,97629.19
2022-10-05T11:22:51.846Z,97628.28
2022-10-05T11:25:51.176Z,97620.94
2022-10-05T11:28:41.597Z,97617.59
2022-10-05T11:31:32.139Z,97609.59
2022-10-05T11:34:38.966Z,97609.31
2022-10-05T11:37:21.273Z,97608.97
2022-10-05T11:40:11.775Z,97604.03
2022-10-05T11:43:04.314Z,97603.38
2022-10-05T11:45:42.483Z,97600.66
2022-10-05T11:48:36.971Z,97588.66
2022-10-05T11:51:35.329Z,97593.47
2022-10-05T11:55:05.920Z,97584.78
2022-10-05T11:57:57.654Z,97582.06
2022-10-05T12:00:27.606Z,97576.31
2022-10-05T12:03:16.119Z,97572.75
2022-10-05T12:05:55.706Z,97570.81
2022-10-05T12:08:33.682Z,97565.56
2022-10-05T12:11:09.080Z,97561.38
2022-10-05T12:13:42.079Z,97563.09
2022-10-05T12:16:14.691Z,97557.97
2022-10-05T12:18:47.935Z,97561.13
2022-10-05T12:21:22.791Z,97556.25
2022-10-05T12:23:53.764Z,97541.03
2022-10-05T12:26:24.853Z,97549.00
2022-10-05T12:28:57.300Z,97542.88
2022-10-05T12:31:33.681Z,97541.16
2022-10-05T12:34:06.857Z,97543.03
2022-10-05T12:37:02.995Z,97542.09
2022-10-05T12:39:31.687Z,97532.56
2022-10-05T12:42:09.061Z,97537.06
2022-10-05T12:44:55.365Z,97540.50
2022-10-05T12:47:29.479Z,97530.50
2022-10-05T12:50:12.979Z,97527.94
2022-10-05T12:53:03.447Z,97535.53
2022-10-05T12:55:36.788Z,97534.16
2022-10-05T12:58:14.512Z,97534.75
2022-10-05T13:00:49.970Z,97534.41
2022-10-05T13:03:24.371Z,97535.84
2022-10-05T13:06:02.505Z,97525.34
2022-10-05T13:08:34.534Z,97530.44
2022-10-05T13:11:14.074Z,97524.53
2022-10-05T13:13:50.563Z,97528.19
2022-10-05T13:16:28.267Z,97528.53
2022-10-05T13:19:07.491Z,97531.63
2022-10-05T13:21:47.368Z,97525.81
2022-10-05T13:24:19.592Z,97523.34
2022-10-05T13:26:49.200Z,97520.06
2022-10-05T13:29:20.744Z,97515.88
2022-10-05T13:31:54.346Z,97519.41
2022-10-05T13:34:27.935Z,97520.22
2022-10-05T13:37:07.652Z,97524.16
2022-10-05T13:39:55.537Z,97523.28
2022-10-05T13:42:32.401Z,97524.88
2022-10-05T13:45:03.963Z,97521.22
2022-10-05T13:47:38.872Z,97524.16
2022-10-05T13:50:10.914Z,97521.19
2022-10-05T13:52:46.327Z,97523.69
2022-10-05T13:55:21.543Z,97511.41
2022-10-05T13:57:55.180Z,97516.63
2022-10-05T14:00:27.077Z,97521.06
2022-10-05T14:02:58.454Z,97525.50
2022-10-05T14:05:27.889Z,97518.19
2022-10-05T14:07:58.692Z,97522.19
2022-10-05T14:10:33.873Z,97514.09
2022-10-05T14:13:03.263Z,97512.28
2022-10-05T14:15:38.491Z,97515.44
2022-10-05T14:18:24.906Z,97514.75
2022-10-05T14:21:17.523Z,97509.31
2022-10-05T14:23:46.130Z,97505.44
2022-10-05T14:26:32.567Z,97502.38
2022-10-05T14:29:02.781Z,97503.28
2022-10-05T14:31:36.643Z,97496.34
2022-10-05T14:34:33.506Z,97495.19
2022-10-05T14:37:09.979Z,97493.41
2022-10-05T14:39:42.389Z,97491.84
2022-10-05T14:42:19.186Z,97499.66
2022-10-05T14:44:49.339Z,97498.84
2022-10-05T14:47:22.601Z,97494.09
2022-10-05T14:50:10.772Z,97487.94
2022-10-05T14:52:41.166Z,97485.56
2022-10-05T14:55:21.301Z,97484.06
2022-10-05T14:57:56.283Z,97484.56
2022-10-05T15:00:26.005Z,97484.13
2022-10-05T15:03:18.005Z,97478.50
2022-10-05T15:05:50.919Z,97476.91
2022-10-05T15:08:28.985Z,97472.34
2022-10-05T15:11:01.899Z,97472.91
2022-10-05T15:13:33.516Z,97473.03
2022-10-05T15:16:06.013Z,97476.31
2022-10-05T15:18:41.182Z,97474.75
2022-10-05T15:21:33.625Z,97469.13
2022-10-05T15:24:04.064Z,97475.88
2022-10-05T15:26:45.857Z,97467.81
2022-10-05T15:29:26.099Z,97471.78
2022-10-05T15:32:01.440Z,97472.59
2022-10-05T15:34:35.060Z,97474.53
2022-10-05T15:37:10.353Z,97469.63
2022-10-05T15:39:43.283Z,97469.63
2022-10-05T15:42:12.957Z,97467.63
2022-10-05T15:44:54.099Z,97468.97
2022-10-05T15:47:24.440Z,97469.19
2022-10-05T15:50:00.238Z,97465.22
2022-10-05T15:52:33.299Z,97473.72
2022-10-05T15:55:10.650Z,97466.03
2022-10-05T15:58:13.478Z,97470.34
2022-10-05T16:00:46.284Z,97475.34
2022-10-05T16:03:20.176Z,97464.75
2022-10-05T16:06:11.478Z,97473.63
2022-10-05T16:08:55.109Z,97477.38
2022-10-05T16:11:33.112Z,97472.03
2022-10-05T16:14:09.733Z,97469.19
2022-10-05T16:16:42.703Z,97468.97
2022-10-05T16:19:13.653Z,97474.63
2022-10-05T16:21:48.517Z,97473.28
2022-10-05T16:24:38.349Z,97475.75
2022-10-05T16:27:11.591Z,97477.91
2022-10-05T16:29:45.543Z,97478.47
2022-10-05T16:32:16.664Z,97476.28
2022-10-05T16:34:56.200Z,97472.19
2022-10-05T16:37:33.168Z,97474.88
2022-10-05T16:40:04.816Z,97472.25
2022-10-05T16:42:46.371Z,97476.53
2022-10-05T16:45:26.383Z,97474.03
2022-10-05T16:48:01.747Z,97473.06
2022-10-05T16:50:37.085Z,97468.97
2022-10-05T16:53:11.071Z,97478.00
2022-10-05T16:55:43.607Z,97478.53
2022-10-05T16:58:17.874Z,97475.22
2022-10-05T17:00:53.134Z,97478.84
2022-10-05T17:03:28.742Z,97484.44
2022-10-05T17:06:15.101Z,97478.94
2022-10-05T17:09:12.545Z,97487.44
2022-10-05T17:11:54.812Z,97479.34
2022-10-05T17:14:33.025Z,97488.00
2022-10-05T17:17:18.917Z,97490.13
2022-10-05T17:19:57.198Z,97491.78
2022-10-05T17:22:28.707Z,97486.88
2022-10-05T17:25:02.896Z,97506.72
2022-10-05T17:27:36.191Z,97497.47
2022-10-05T17:30:37.183Z,97510.44
2022-10-05T17:33:24.797Z,97512.41
2022-10-05T17:36:12.830Z,97514.03
2022-10-05T17:38:49.502Z,97526.06
2022-10-05T17:41:20.181Z,97528.78
2022-10-05T17:44:26.394Z,97529.94
2022-10-05T17:46:56.866Z,97539.69
2022-10-05T17:50:10.785Z,97538.25
2022-10-05T17:53:01.259Z,97536.03
2022-10-05T17:55:48.072Z,97542.44
2022-10-05T17:59:01.995Z,97538.25
2022-10-05T18:01:37.169Z,97537.78
2022-10-05T18:04:34.428Z,97550.72
2022-10-05T18:07:05.173Z,97542.75
2022-10-05T18:09:38.390Z,97545.28
2022-10-05T18:12:15.302Z,97540.81
2022-10-05T18:14:57.472Z,97556.94
2022-10-05T18:17:42.014Z,97553.56
2022-10-05T18:20:28.633Z,97552.13
2022-10-05T18:23:29.424Z,97565.50
2022-10-05T18:26:04.846Z,97565.34
2022-10-05T18:28:43.142Z,97570.09
2022-10-05T18:31:19.283Z,97574.22
2022-10-05T18:34:01.579Z,97576.59
2022-10-05T18:36:40.210Z,97571.31
2022-10-05T18:39:16.113Z,97577.38
2022-10-05T18:41:54.274Z,97578.00
2022-10-05T18:44:32.532Z,97580.84
2022-10-05T18:47:05.291Z,97585.31
2022-10-05T18:49:44.480Z,97595.13
2022-10-05T18:52:18.577Z,97595.25
2022-10-05T18:54:55.224Z,97593.78
2022-10-05T18:57:40.351Z,97597.75
2022-10-05T19:00:13.739Z,97600.59
2022-10-05T19:02:46.477Z,97614.41
2022-10-05T19:05:46.251Z,97603.19
2022-10-05T19:08:19.296Z,97609.84
2022-10-05T19:10:55.208Z,97610.00
2022-10-05T19:13:33.308Z,97612.19
2022-10-05T19:16:10.471Z,97608.97
2022-10-05T19:18:47.017Z,97621.34
2022-10-05T19:21:25.154Z,97614.03
2022-10-05T19:24:06.235Z,97620.84
2022-10-05T19:26:49.827Z,97626.09
2022-10-05T19:29:27.139Z,97636.41
2022-10-05T19:31:57.854Z,97629.69
2022-10-05T19:34:43.991Z,97629.50
2022-10-05T19:37:15.628Z,97638.22
2022-10-05T19:39:50.717Z,97647.25
2022-10-05T19:42:31.609Z,97650.34
2022-10-05T19:45:09.223Z,97650.16
2022-10-05T19:47:45.367Z,97649.94
2022-10-05T19:50:28.176Z,97653.25
2022-10-05T19:53:08.221Z,97649.56
2022-10-05T19:55:39.571Z,97648.56
2022-10-05T19:58:19.288Z,97657.56
2022-10-05T20:00:54.286Z,97658.47
2022-10-05T20:03:27.507Z,97658.59
2022-10-05T20:05:56.838Z,97657.56
2022-10-05T20:08:28.397Z,97660.38
2022-10-05T20:11:11.255Z,97666.97
2022-10-05T20:13:41.713Z,97666.00
2022-10-05T20:16:39.232Z,97671.19
2022-10-05T20:19:44.998Z,97675.38
2022-10-05T20:22:31.540Z,97685.19
2022-10-05T20:25:02.591Z,97681.97
2022-10-05T20:27:43.580Z,97690.19
2022-10-05T20:30:13.066Z,97693.75
2022-10-05T20:32:41.571Z,97697.88
2022-10-05T20:35:09.992Z,97696.06
2022-10-05T20:37:37.981Z,97692.34
2022-10-05T20:40:08.682Z,97697.53
2022-10-05T20:42:36.725Z,97701.13
2022-10-05T20:45:06.362Z,97706.09
2022-10-05T20:47:34.380Z,97707.00
2022-10-05T20:50:05.559Z,97714.06
2022-10-05T20:52:33.538Z,97709.84
2022-10-05T20:55:01.835Z,97715.53
2022-10-05T20:57:31.499Z,97721.22
2022-10-05T20:59:59.692Z,97726.69
2022-10-05T21:02:28.701Z,97721.38
2022-10-05T21:04:56.705Z,97724.13
2022-10-05T21:07:25.763Z,97729.59
2022-10-05T21:09:55.674Z,97732.09
2022-10-05T21:12:23.687Z,97732.66
2022-10-05T21:14:53.589Z,97735.41
2022-10-05T21:17:21.558Z,97741.41
2022-10-05T21:19:49.552Z,97744.41
2022-10-05T21:22:17.631Z,97749.84
2022-10-05T21:24:45.753Z,97749.94
2022-10-05T21:27:13.808Z,97754.28
2022-10-05T21:29:42.283Z,97755.44
2022-10-05T21:32:12.269Z,97761.97
2022-10-05T21:34:40.609Z,97765.56
2022-10-05T21:37:09.182Z,97763.13
2022-10-05T21:39:37.152Z,97762.13
2022-10-05T21:42:05.381Z,97764.28
2022-10-05T21:44:33.363Z,97771.06
2022-10-05T21:47:01.479Z,97769.75
2022-10-05T21:49:31.199Z,97762.25
2022-10-05T21:51:59.971Z,97764.41
2022-10-05T21:54:28.652Z,97771.97
2022-10-05T21:56:58.638Z,97774.72
2022-10-05T21:59:30.761Z,97774.28
2022-10-05T22:01:59.007Z,97776.00
2022-10-05T22:04:27.024Z,97778.75
2022-10-05T22:06:56.860Z,97784.69
2022-10-05T22:09:24.893Z,97784.75
2022-10-05T22:11:52.897Z,97784.25
2022-10-05T22:14:21.029Z,97789.63
2022-10-05T22:16:49.051Z,97790.19
2022-10-05T22:19:19.304Z,97789.66
2022-10-05T22:21:47.317Z,97788.88
2022-10-05T22:24:16.745Z,97791.63
2022-10-05T22:26:45.989Z,97792.72
2022-10-05T22:29:15.713Z,97795.16
2022-10-05T22:31:43.824Z,97800.53
2022-10-05T22:34:11.808Z,97795.16
2022-10-05T22:36:41.761Z,97801.38
2022-10-05T22:39:09.808Z,97800.84
2022-10-05T22:41:39.188Z,97808.19
2022-10-05T22:44:07.273Z,97808.75
2022-10-05T22:46:35.387Z,97816.03
2022-10-05T22:49:03.477Z,97816.84
2022-10-05T22:51:31.424Z,97813.88
2022-10-05T22:53:59.404Z,97820.34
2022-10-05T22:56:27.593Z,97816.84
2022-10-05T22:58:56.945Z,97818.22
2022-10-05T23:01:25.006Z,97817.97
2022-10-05T23:03:53.031Z,97821.25
2022-10-05T23:06:22.284Z,97829.38
2022-10-05T23:08:50.404Z,97834.75
2022-10-05T23:11:20.646Z,97829.38
2022-10-05T23:13:50.331Z,97839.63
2022-10-05T23:16:21.249Z,97835.88
2022-10-05T23:18:50.399Z,97840.19
2022-10-05T23:21:20.013Z,97843.16
2022-10-05T23:23:50.882Z,97847.75
2022-10-05T23:26:20.855Z,97851.50
2022-10-05T23:28:50.044Z,97856.63
2022-10-05T23:31:21.706Z,97846.75
2022-10-05T23:33:49.843Z,97862.88
2022-10-05T23:36:19.209Z,97861.81
2022-10-05T23:38:47.547Z,97877.41
2022-10-05T23:41:16.992Z,97872.31
2022-10-05T23:43:45.030Z,97880.38
2022-10-05T23:46:14.423Z,97884.44
2022-10-05T23:48:43.835Z,97891.44
2022-10-05T23:51:13.189Z,97882.25
2022-10-05T23:53:41.161Z,97886.06
2022-10-05T23:56:09.167Z,97880.41
2022-10-05T23:58:37.355Z,97883.94
